sensor_id;sensor_type;location;lat;lon;timestamp;P1;durP1;ratioP1;P2;durP2;ratioP2
74471;SDS011;62920;53.572;10.050;2022-12-20T00:01:11;9.88;;;5.28;;
74471;SDS011;62920;53.572;10.050;2022-12-20T00:03:38;12.52;;;5.93;;
74471;SDS011;62920;53.572;10.050;2022-12-20T00:06:03;9.85;;;5.22;;
74471;SDS011;62920;53.572;10.050;2022-12-20T00:08:29;9.82;;;5.40;;
74471;SDS011;62920;53.572;10.050;2022-12-20T00:10:55;9.35;;;4.55;;
74471;SDS011;62920;53.572;10.050;2022-12-20T00:13:20;11.80;;;4.47;;
74471;SDS011;62920;53.572;10.050;2022-12-20T00:15:46;9.57;;;5.07;;
74471;SDS011;62920;53.572;10.050;2022-12-20T00:18:11;11.98;;;5.07;;
74471;SDS011;62920;53.572;10.050;2022-12-20T00:20:37;9.48;;;5.25;;
74471;SDS011;62920;53.572;10.050;2022-12-20T00:23:02;7.45;;;4.20;;
74471;SDS011;62920;53.572;10.050;2022-12-20T00:25:28;12.55;;;6.60;;
74471;SDS011;62920;53.572;10.050;2022-12-20T00:27:53;12.65;;;5.60;;
74471;SDS011;62920;53.572;10.050;2022-12-20T00:30:19;8.35;;;4.70;;
74471;SDS011;62920;53.572;10.050;2022-12-20T00:32:44;10.60;;;5.03;;
74471;SDS011;62920;53.572;10.050;2022-12-20T00:35:10;10.23;;;5.57;;
74471;SDS011;62920;53.572;10.050;2022-12-20T00:37:35;11.25;;;5.45;;
74471;SDS011;62920;53.572;10.050;2022-12-20T00:40:02;10.82;;;5.43;;
74471;SDS011;62920;53.572;10.050;2022-12-20T00:42:28;8.98;;;4.82;;
74471;SDS011;62920;53.572;10.050;2022-12-20T00:44:53;9.20;;;5.15;;
74471;SDS011;62920;53.572;10.050;2022-12-20T00:47:19;9.75;;;4.85;;
74471;SDS011;62920;53.572;10.050;2022-12-20T00:49:44;8.95;;;4.65;;
74471;SDS011;62920;53.572;10.050;2022-12-20T00:52:09;11.68;;;5.03;;
74471;SDS011;62920;53.572;10.050;2022-12-20T00:54:35;9.68;;;5.10;;
74471;SDS011;62920;53.572;10.050;2022-12-20T00:57:00;9.55;;;5.05;;
74471;SDS011;62920;53.572;10.050;2022-12-20T00:59:25;12.18;;;5.15;;
74471;SDS011;62920;53.572;10.050;2022-12-20T01:01:51;9.90;;;4.60;;
74471;SDS011;62920;53.572;10.050;2022-12-20T01:04:16;7.40;;;4.35;;
74471;SDS011;62920;53.572;10.050;2022-12-20T01:06:41;11.55;;;5.60;;
74471;SDS011;62920;53.572;10.050;2022-12-20T01:09:07;7.60;;;4.43;;
74471;SDS011;62920;53.572;10.050;2022-12-20T01:11:33;9.77;;;4.90;;
74471;SDS011;62920;53.572;10.050;2022-12-20T01:14:01;12.90;;;4.80;;
74471;SDS011;62920;53.572;10.050;2022-12-20T01:16:34;10.10;;;4.03;;
74471;SDS011;62920;53.572;10.050;2022-12-20T01:19:00;11.40;;;4.97;;
74471;SDS011;62920;53.572;10.050;2022-12-20T01:21:26;10.45;;;5.00;;
74471;SDS011;62920;53.572;10.050;2022-12-20T01:23:52;10.38;;;4.80;;
74471;SDS011;62920;53.572;10.050;2022-12-20T01:26:19;10.43;;;4.70;;
74471;SDS011;62920;53.572;10.050;2022-12-20T01:28:47;9.88;;;4.93;;
74471;SDS011;62920;53.572;10.050;2022-12-20T01:31:16;11.90;;;6.18;;
74471;SDS011;62920;53.572;10.050;2022-12-20T01:33:43;8.50;;;4.75;;
74471;SDS011;62920;53.572;10.050;2022-12-20T01:36:10;8.85;;;4.95;;
74471;SDS011;62920;53.572;10.050;2022-12-20T01:38:37;9.10;;;5.13;;
74471;SDS011;62920;53.572;10.050;2022-12-20T01:41:03;9.95;;;5.45;;
74471;SDS011;62920;53.572;10.050;2022-12-20T01:43:45;11.32;;;4.95;;
74471;SDS011;62920;53.572;10.050;2022-12-20T01:46:21;22.73;;;5.40;;
74471;SDS011;62920;53.572;10.050;2022-12-20T01:48:51;10.40;;;5.00;;
74471;SDS011;62920;53.572;10.050;2022-12-20T01:51:24;8.07;;;4.88;;
74471;SDS011;62920;53.572;10.050;2022-12-20T01:53:54;10.85;;;4.80;;
74471;SDS011;62920;53.572;10.050;2022-12-20T01:56:22;10.38;;;5.47;;
74471;SDS011;62920;53.572;10.050;2022-12-20T01:58:48;11.82;;;4.63;;
74471;SDS011;62920;53.572;10.050;2022-12-20T02:01:15;9.10;;;4.93;;
74471;SDS011;62920;53.572;10.050;2022-12-20T02:03:41;11.55;;;5.13;;
74471;SDS011;62920;53.572;10.050;2022-12-20T02:06:13;9.32;;;5.13;;
74471;SDS011;62920;53.572;10.050;2022-12-20T02:08:43;8.23;;;4.80;;
74471;SDS011;62920;53.572;10.050;2022-12-20T02:11:22;9.50;;;4.85;;
74471;SDS011;62920;53.572;10.050;2022-12-20T02:16:21;7.95;;;4.68;;
74471;SDS011;62920;53.572;10.050;2022-12-20T02:19:11;9.50;;;4.00;;
74471;SDS011;62920;53.572;10.050;2022-12-20T02:24:42;9.98;;;4.40;;
74471;SDS011;62920;53.572;10.050;2022-12-20T02:27:27;7.60;;;4.55;;
74471;SDS011;62920;53.572;10.050;2022-12-20T02:30:04;7.63;;;4.05;;
74471;SDS011;62920;53.572;10.050;2022-12-20T02:32:45;8.00;;;4.05;;
74471;SDS011;62920;53.572;10.050;2022-12-20T02:35:14;9.23;;;4.10;;
74471;SDS011;62920;53.572;10.050;2022-12-20T02:37:52;8.93;;;4.28;;
74471;SDS011;62920;53.572;10.050;2022-12-20T02:40:35;7.65;;;4.35;;
74471;SDS011;62920;53.572;10.050;2022-12-20T02:45:49;7.85;;;3.85;;
74471;SDS011;62920;53.572;10.050;2022-12-20T02:48:14;7.07;;;4.50;;
74471;SDS011;62920;53.572;10.050;2022-12-20T02:50:44;7.65;;;4.13;;
74471;SDS011;62920;53.572;10.050;2022-12-20T02:53:11;8.20;;;3.90;;
74471;SDS011;62920;53.572;10.050;2022-12-20T02:58:09;8.98;;;4.38;;
74471;SDS011;62920;53.572;10.050;2022-12-20T03:00:55;9.88;;;4.35;;
74471;SDS011;62920;53.572;10.050;2022-12-20T03:03:28;7.72;;;3.65;;
74471;SDS011;62920;53.572;10.050;2022-12-20T03:05:55;9.60;;;3.70;;
74471;SDS011;62920;53.572;10.050;2022-12-20T03:08:21;9.32;;;3.78;;
74471;SDS011;62920;53.572;10.050;2022-12-20T03:10:47;6.50;;;3.55;;
74471;SDS011;62920;53.572;10.050;2022-12-20T03:13:13;7.20;;;3.35;;
74471;SDS011;62920;53.572;10.050;2022-12-20T03:15:39;8.68;;;4.00;;
74471;SDS011;62920;53.572;10.050;2022-12-20T03:18:04;7.75;;;3.90;;
74471;SDS011;62920;53.572;10.050;2022-12-20T03:20:30;7.57;;;3.80;;
74471;SDS011;62920;53.572;10.050;2022-12-20T03:22:55;6.72;;;3.58;;
74471;SDS011;62920;53.572;10.050;2022-12-20T03:25:20;7.57;;;3.38;;
74471;SDS011;62920;53.572;10.050;2022-12-20T03:27:46;7.20;;;3.70;;
74471;SDS011;62920;53.572;10.050;2022-12-20T03:30:11;7.10;;;3.60;;
74471;SDS011;62920;53.572;10.050;2022-12-20T03:32:37;9.52;;;4.45;;
74471;SDS011;62920;53.572;10.050;2022-12-20T03:35:03;6.20;;;3.63;;
74471;SDS011;62920;53.572;10.050;2022-12-20T03:37:29;7.60;;;3.70;;
74471;SDS011;62920;53.572;10.050;2022-12-20T03:39:54;11.55;;;3.50;;
74471;SDS011;62920;53.572;10.050;2022-12-20T03:42:20;6.63;;;3.55;;
74471;SDS011;62920;53.572;10.050;2022-12-20T03:44:45;7.82;;;3.90;;
74471;SDS011;62920;53.572;10.050;2022-12-20T03:47:11;9.30;;;3.67;;
74471;SDS011;62920;53.572;10.050;2022-12-20T03:49:36;6.78;;;3.97;;
74471;SDS011;62920;53.572;10.050;2022-12-20T03:52:02;7.88;;;3.80;;
74471;SDS011;62920;53.572;10.050;2022-12-20T03:54:27;9.90;;;4.45;;
74471;SDS011;62920;53.572;10.050;2022-12-20T03:56:52;8.73;;;3.83;;
74471;SDS011;62920;53.572;10.050;2022-12-20T03:59:18;7.30;;;3.58;;
74471;SDS011;62920;53.572;10.050;2022-12-20T04:01:44;8.55;;;3.50;;
74471;SDS011;62920;53.572;10.050;2022-12-20T04:04:10;7.53;;;3.90;;
74471;SDS011;62920;53.572;10.050;2022-12-20T04:06:36;7.50;;;3.55;;
74471;SDS011;62920;53.572;10.050;2022-12-20T04:09:02;6.30;;;3.72;;
74471;SDS011;62920;53.572;10.050;2022-12-20T04:11:27;6.85;;;3.28;;
74471;SDS011;62920;53.572;10.050;2022-12-20T04:13:53;7.70;;;3.97;;
74471;SDS011;62920;53.572;10.050;2022-12-20T04:16:19;9.05;;;3.67;;
74471;SDS011;62920;53.572;10.050;2022-12-20T04:18:46;9.25;;;3.60;;
74471;SDS011;62920;53.572;10.050;2022-12-20T04:21:12;6.65;;;3.42;;
74471;SDS011;62920;53.572;10.050;2022-12-20T04:23:39;7.68;;;4.10;;
74471;SDS011;62920;53.572;10.050;2022-12-20T04:26:06;8.95;;;3.33;;
74471;SDS011;62920;53.572;10.050;2022-12-20T04:28:32;8.35;;;3.72;;
74471;SDS011;62920;53.572;10.050;2022-12-20T04:30:59;7.97;;;3.88;;
74471;SDS011;62920;53.572;10.050;2022-12-20T04:33:25;6.78;;;3.78;;
74471;SDS011;62920;53.572;10.050;2022-12-20T04:38:17;7.05;;;3.70;;
74471;SDS011;62920;53.572;10.050;2022-12-20T04:40:43;5.65;;;3.08;;
74471;SDS011;62920;53.572;10.050;2022-12-20T04:43:08;8.77;;;3.92;;
74471;SDS011;62920;53.572;10.050;2022-12-20T04:45:34;8.65;;;3.78;;
74471;SDS011;62920;53.572;10.050;2022-12-20T04:47:59;8.13;;;3.92;;
74471;SDS011;62920;53.572;10.050;2022-12-20T04:50:25;7.90;;;3.72;;
74471;SDS011;62920;53.572;10.050;2022-12-20T04:52:50;7.22;;;3.63;;
74471;SDS011;62920;53.572;10.050;2022-12-20T04:55:38;8.35;;;4.10;;
74471;SDS011;62920;53.572;10.050;2022-12-20T04:58:04;7.68;;;4.20;;
74471;SDS011;62920;53.572;10.050;2022-12-20T05:00:29;8.63;;;3.63;;
74471;SDS011;62920;53.572;10.050;2022-12-20T05:02:55;8.93;;;3.80;;
74471;SDS011;62920;53.572;10.050;2022-12-20T05:05:20;7.97;;;3.60;;
74471;SDS011;62920;53.572;10.050;2022-12-20T05:07:46;11.77;;;3.90;;
74471;SDS011;62920;53.572;10.050;2022-12-20T05:10:11;8.02;;;3.70;;
74471;SDS011;62920;53.572;10.050;2022-12-20T05:12:36;7.38;;;3.50;;
74471;SDS011;62920;53.572;10.050;2022-12-20T05:15:02;9.15;;;3.40;;
74471;SDS011;62920;53.572;10.050;2022-12-20T05:17:27;7.57;;;3.88;;
74471;SDS011;62920;53.572;10.050;2022-12-20T05:19:53;8.73;;;3.83;;
74471;SDS011;62920;53.572;10.050;2022-12-20T05:22:18;7.93;;;4.15;;
74471;SDS011;62920;53.572;10.050;2022-12-20T05:25:03;7.97;;;4.20;;
74471;SDS011;62920;53.572;10.050;2022-12-20T05:27:47;7.57;;;3.90;;
74471;SDS011;62920;53.572;10.050;2022-12-20T05:30:12;10.65;;;4.00;;
74471;SDS011;62920;53.572;10.050;2022-12-20T05:32:38;8.25;;;3.55;;
74471;SDS011;62920;53.572;10.050;2022-12-20T05:35:03;7.32;;;4.05;;
74471;SDS011;62920;53.572;10.050;2022-12-20T05:37:29;12.20;;;4.38;;
74471;SDS011;62920;53.572;10.050;2022-12-20T05:39:54;9.30;;;4.22;;
74471;SDS011;62920;53.572;10.050;2022-12-20T05:42:19;6.75;;;4.18;;
74471;SDS011;62920;53.572;10.050;2022-12-20T05:44:45;10.20;;;5.00;;
74471;SDS011;62920;53.572;10.050;2022-12-20T05:47:10;8.38;;;4.15;;
74471;SDS011;62920;53.572;10.050;2022-12-20T05:49:36;9.52;;;4.47;;
74471;SDS011;62920;53.572;10.050;2022-12-20T05:52:01;7.85;;;4.15;;
74471;SDS011;62920;53.572;10.050;2022-12-20T05:54:27;8.60;;;4.13;;
74471;SDS011;62920;53.572;10.050;2022-12-20T05:56:52;9.27;;;4.05;;
74471;SDS011;62920;53.572;10.050;2022-12-20T05:59:17;9.77;;;4.57;;
74471;SDS011;62920;53.572;10.050;2022-12-20T06:01:43;11.35;;;4.55;;
74471;SDS011;62920;53.572;10.050;2022-12-20T06:04:08;8.55;;;4.13;;
74471;SDS011;62920;53.572;10.050;2022-12-20T06:06:33;8.10;;;4.10;;
74471;SDS011;62920;53.572;10.050;2022-12-20T06:08:59;8.40;;;3.88;;
74471;SDS011;62920;53.572;10.050;2022-12-20T06:11:25;8.35;;;4.10;;
74471;SDS011;62920;53.572;10.050;2022-12-20T06:13:50;12.18;;;4.82;;
74471;SDS011;62920;53.572;10.050;2022-12-20T06:16:16;8.35;;;4.18;;
74471;SDS011;62920;53.572;10.050;2022-12-20T06:18:44;7.53;;;3.90;;
74471;SDS011;62920;53.572;10.050;2022-12-20T06:21:09;9.18;;;4.55;;
74471;SDS011;62920;53.572;10.050;2022-12-20T06:23:35;7.72;;;3.88;;
74471;SDS011;62920;53.572;10.050;2022-12-20T06:26:00;8.50;;;4.00;;
74471;SDS011;62920;53.572;10.050;2022-12-20T06:28:26;10.52;;;4.20;;
74471;SDS011;62920;53.572;10.050;2022-12-20T06:30:52;8.15;;;4.43;;
74471;SDS011;62920;53.572;10.050;2022-12-20T06:33:18;10.70;;;4.70;;
74471;SDS011;62920;53.572;10.050;2022-12-20T06:35:43;7.70;;;4.30;;
74471;SDS011;62920;53.572;10.050;2022-12-20T06:38:08;8.65;;;4.30;;
74471;SDS011;62920;53.572;10.050;2022-12-20T06:40:34;8.50;;;4.25;;
74471;SDS011;62920;53.572;10.050;2022-12-20T06:42:59;7.78;;;4.13;;
74471;SDS011;62920;53.572;10.050;2022-12-20T06:45:24;6.97;;;4.32;;
74471;SDS011;62920;53.572;10.050;2022-12-20T06:47:50;13.40;;;4.88;;
74471;SDS011;62920;53.572;10.050;2022-12-20T06:50:15;8.10;;;3.78;;
74471;SDS011;62920;53.572;10.050;2022-12-20T06:52:41;8.95;;;4.57;;
74471;SDS011;62920;53.572;10.050;2022-12-20T06:55:06;10.73;;;4.47;;
74471;SDS011;62920;53.572;10.050;2022-12-20T06:57:32;7.53;;;3.95;;
74471;SDS011;62920;53.572;10.050;2022-12-20T06:59:57;12.60;;;4.78;;
74471;SDS011;62920;53.572;10.050;2022-12-20T07:02:23;8.02;;;4.57;;
74471;SDS011;62920;53.572;10.050;2022-12-20T07:04:48;9.85;;;4.13;;
74471;SDS011;62920;53.572;10.050;2022-12-20T07:07:13;6.43;;;3.67;;
74471;SDS011;62920;53.572;10.050;2022-12-20T07:09:39;9.55;;;4.38;;
74471;SDS011;62920;53.572;10.050;2022-12-20T07:12:06;9.32;;;4.63;;
74471;SDS011;62920;53.572;10.050;2022-12-20T07:14:31;10.88;;;4.35;;
74471;SDS011;62920;53.572;10.050;2022-12-20T07:16:57;9.45;;;4.45;;
74471;SDS011;62920;53.572;10.050;2022-12-20T07:19:22;9.20;;;4.90;;
74471;SDS011;62920;53.572;10.050;2022-12-20T07:21:48;10.95;;;5.22;;
74471;SDS011;62920;53.572;10.050;2022-12-20T07:24:13;10.00;;;4.60;;
74471;SDS011;62920;53.572;10.050;2022-12-20T07:26:39;10.00;;;4.43;;
74471;SDS011;62920;53.572;10.050;2022-12-20T07:29:05;8.50;;;4.30;;
74471;SDS011;62920;53.572;10.050;2022-12-20T07:31:31;7.82;;;4.35;;
74471;SDS011;62920;53.572;10.050;2022-12-20T07:33:56;10.18;;;4.13;;
74471;SDS011;62920;53.572;10.050;2022-12-20T07:36:21;9.38;;;5.13;;
74471;SDS011;62920;53.572;10.050;2022-12-20T07:38:47;9.68;;;4.85;;
74471;SDS011;62920;53.572;10.050;2022-12-20T07:41:13;9.48;;;5.00;;
74471;SDS011;62920;53.572;10.050;2022-12-20T07:43:40;9.60;;;5.03;;
74471;SDS011;62920;53.572;10.050;2022-12-20T07:46:06;10.98;;;4.68;;
74471;SDS011;62920;53.572;10.050;2022-12-20T07:48:35;11.10;;;4.82;;
74471;SDS011;62920;53.572;10.050;2022-12-20T07:51:02;10.05;;;4.82;;
74471;SDS011;62920;53.572;10.050;2022-12-20T07:53:30;10.50;;;5.18;;
74471;SDS011;62920;53.572;10.050;2022-12-20T07:55:57;12.45;;;5.28;;
74471;SDS011;62920;53.572;10.050;2022-12-20T07:58:24;9.48;;;5.32;;
74471;SDS011;62920;53.572;10.050;2022-12-20T08:00:51;14.25;;;5.20;;
74471;SDS011;62920;53.572;10.050;2022-12-20T08:03:20;11.50;;;5.65;;
74471;SDS011;62920;53.572;10.050;2022-12-20T08:05:49;13.05;;;5.63;;
74471;SDS011;62920;53.572;10.050;2022-12-20T08:08:16;11.40;;;5.32;;
74471;SDS011;62920;53.572;10.050;2022-12-20T08:10:42;11.05;;;5.15;;
74471;SDS011;62920;53.572;10.050;2022-12-20T08:13:07;9.82;;;5.35;;
74471;SDS011;62920;53.572;10.050;2022-12-20T08:15:33;9.75;;;5.47;;
74471;SDS011;62920;53.572;10.050;2022-12-20T08:17:59;10.88;;;5.97;;
74471;SDS011;62920;53.572;10.050;2022-12-20T08:20:25;10.50;;;4.93;;
74471;SDS011;62920;53.572;10.050;2022-12-20T08:22:51;13.13;;;5.60;;
74471;SDS011;62920;53.572;10.050;2022-12-20T08:25:16;10.55;;;5.75;;
74471;SDS011;62920;53.572;10.050;2022-12-20T08:27:41;11.90;;;5.70;;
74471;SDS011;62920;53.572;10.050;2022-12-20T08:30:07;10.40;;;4.97;;
74471;SDS011;62920;53.572;10.050;2022-12-20T08:32:34;12.15;;;5.68;;
74471;SDS011;62920;53.572;10.050;2022-12-20T08:35:00;11.15;;;5.50;;
74471;SDS011;62920;53.572;10.050;2022-12-20T08:37:25;13.35;;;5.88;;
74471;SDS011;62920;53.572;10.050;2022-12-20T08:39:51;10.07;;;5.63;;
74471;SDS011;62920;53.572;10.050;2022-12-20T08:42:16;10.40;;;5.38;;
74471;SDS011;62920;53.572;10.050;2022-12-20T08:44:41;10.60;;;5.57;;
74471;SDS011;62920;53.572;10.050;2022-12-20T08:47:08;11.43;;;6.03;;
74471;SDS011;62920;53.572;10.050;2022-12-20T08:49:34;10.45;;;5.30;;
74471;SDS011;62920;53.572;10.050;2022-12-20T08:52:00;10.75;;;4.95;;
74471;SDS011;62920;53.572;10.050;2022-12-20T08:54:25;9.00;;;5.15;;
74471;SDS011;62920;53.572;10.050;2022-12-20T08:56:51;11.23;;;4.97;;
74471;SDS011;62920;53.572;10.050;2022-12-20T08:59:16;12.50;;;6.43;;
74471;SDS011;62920;53.572;10.050;2022-12-20T09:01:41;12.25;;;5.20;;
74471;SDS011;62920;53.572;10.050;2022-12-20T09:04:08;8.60;;;5.30;;
74471;SDS011;62920;53.572;10.050;2022-12-20T09:06:34;13.43;;;5.55;;
74471;SDS011;62920;53.572;10.050;2022-12-20T09:08:59;10.25;;;5.32;;
74471;SDS011;62920;53.572;10.050;2022-12-20T09:11:25;11.57;;;5.53;;
74471;SDS011;62920;53.572;10.050;2022-12-20T09:13:52;11.48;;;5.35;;
74471;SDS011;62920;53.572;10.050;2022-12-20T09:16:20;11.85;;;5.53;;
74471;SDS011;62920;53.572;10.050;2022-12-20T09:18:56;15.85;;;5.47;;
74471;SDS011;62920;53.572;10.050;2022-12-20T09:21:23;14.38;;;5.85;;
74471;SDS011;62920;53.572;10.050;2022-12-20T09:23:49;11.95;;;5.88;;
74471;SDS011;62920;53.572;10.050;2022-12-20T09:26:16;11.20;;;5.30;;
74471;SDS011;62920;53.572;10.050;2022-12-20T09:28:42;10.55;;;5.18;;
74471;SDS011;62920;53.572;10.050;2022-12-20T09:31:16;11.98;;;5.18;;
74471;SDS011;62920;53.572;10.050;2022-12-20T09:33:43;11.30;;;5.80;;
74471;SDS011;62920;53.572;10.050;2022-12-20T09:36:13;11.52;;;5.30;;
74471;SDS011;62920;53.572;10.050;2022-12-20T09:38:39;10.38;;;5.60;;
74471;SDS011;62920;53.572;10.050;2022-12-20T09:41:06;12.95;;;5.32;;
74471;SDS011;62920;53.572;10.050;2022-12-20T09:43:32;14.00;;;6.35;;
74471;SDS011;62920;53.572;10.050;2022-12-20T09:46:01;13.27;;;5.97;;
74471;SDS011;62920;53.572;10.050;2022-12-20T09:48:28;9.70;;;5.50;;
74471;SDS011;62920;53.572;10.050;2022-12-20T09:56:34;10.52;;;5.50;;
74471;SDS011;62920;53.572;10.050;2022-12-20T09:59:05;13.57;;;5.65;;
74471;SDS011;62920;53.572;10.050;2022-12-20T10:01:35;12.13;;;5.70;;
74471;SDS011;62920;53.572;10.050;2022-12-20T10:04:20;11.40;;;4.97;;
74471;SDS011;62920;53.572;10.050;2022-12-20T10:15:35;9.55;;;5.53;;
74471;SDS011;62920;53.572;10.050;2022-12-20T10:24:20;9.18;;;5.50;;
74471;SDS011;62920;53.572;10.050;2022-12-20T10:26:49;10.20;;;5.65;;
74471;SDS011;62920;53.572;10.050;2022-12-20T10:29:15;9.32;;;4.57;;
74471;SDS011;62920;53.572;10.050;2022-12-20T10:31:41;9.27;;;5.30;;
74471;SDS011;62920;53.572;10.050;2022-12-20T10:34:07;11.23;;;5.28;;
74471;SDS011;62920;53.572;10.050;2022-12-20T10:36:33;8.55;;;4.57;;
74471;SDS011;62920;53.572;10.050;2022-12-20T10:39:07;10.07;;;5.10;;
74471;SDS011;62920;53.572;10.050;2022-12-20T10:44:26;8.73;;;4.82;;
74471;SDS011;62920;53.572;10.050;2022-12-20T10:46:52;7.93;;;5.15;;
74471;SDS011;62920;53.572;10.050;2022-12-20T10:49:30;10.10;;;5.13;;
74471;SDS011;62920;53.572;10.050;2022-12-20T10:56:59;10.93;;;5.35;;
74471;SDS011;62920;53.572;10.050;2022-12-20T10:59:36;8.80;;;5.13;;
74471;SDS011;62920;53.572;10.050;2022-12-20T11:04:57;10.65;;;4.70;;
74471;SDS011;62920;53.572;10.050;2022-12-20T11:07:28;10.70;;;5.10;;
74471;SDS011;62920;53.572;10.050;2022-12-20T11:09:57;10.43;;;4.53;;
74471;SDS011;62920;53.572;10.050;2022-12-20T11:12:55;8.40;;;4.28;;
74471;SDS011;62920;53.572;10.050;2022-12-20T11:15:23;9.50;;;4.95;;
74471;SDS011;62920;53.572;10.050;2022-12-20T11:20:32;11.40;;;4.95;;
74471;SDS011;62920;53.572;10.050;2022-12-20T11:23:23;12.90;;;5.18;;
74471;SDS011;62920;53.572;10.050;2022-12-20T11:26:31;9.02;;;5.00;;
74471;SDS011;62920;53.572;10.050;2022-12-20T11:28:50;7.03;;;4.40;;
74471;SDS011;62920;53.572;10.050;2022-12-20T11:35:06;11.95;;;5.20;;
74471;SDS011;62920;53.572;10.050;2022-12-20T11:49:02;13.30;;;5.72;;
74471;SDS011;62920;53.572;10.050;2022-12-20T11:56:41;6.93;;;3.85;;
74471;SDS011;62920;53.572;10.050;2022-12-20T12:01:46;6.78;;;4.22;;
74471;SDS011;62920;53.572;10.050;2022-12-20T12:04:20;6.35;;;3.72;;
74471;SDS011;62920;53.572;10.050;2022-12-20T12:10:02;9.05;;;3.92;;
74471;SDS011;62920;53.572;10.050;2022-12-20T12:12:33;6.53;;;3.42;;
74471;SDS011;62920;53.572;10.050;2022-12-20T12:15:18;9.52;;;4.30;;
74471;SDS011;62920;53.572;10.050;2022-12-20T12:18:02;8.40;;;4.18;;
74471;SDS011;62920;53.572;10.050;2022-12-20T12:23:22;6.35;;;3.28;;
74471;SDS011;62920;53.572;10.050;2022-12-20T12:25:56;7.22;;;3.80;;
74471;SDS011;62920;53.572;10.050;2022-12-20T12:28:23;7.88;;;4.03;;
74471;SDS011;62920;53.572;10.050;2022-12-20T12:30:56;6.38;;;3.55;;
74471;SDS011;62920;53.572;10.050;2022-12-20T12:33:27;7.85;;;3.95;;
74471;SDS011;62920;53.572;10.050;2022-12-20T12:47:01;6.13;;;3.10;;
74471;SDS011;62920;53.572;10.050;2022-12-20T12:49:31;8.07;;;3.60;;
74471;SDS011;62920;53.572;10.050;2022-12-20T12:51:58;7.60;;;3.20;;
74471;SDS011;62920;53.572;10.050;2022-12-20T12:54:26;7.50;;;3.05;;
74471;SDS011;62920;53.572;10.050;2022-12-20T12:57:15;7.28;;;3.35;;
74471;SDS011;62920;53.572;10.050;2022-12-20T12:59:42;5.88;;;3.30;;
74471;SDS011;62920;53.572;10.050;2022-12-20T13:10:00;6.55;;;3.58;;
74471;SDS011;62920;53.572;10.050;2022-12-20T13:17:51;6.43;;;3.80;;
74471;SDS011;62920;53.572;10.050;2022-12-20T13:20:24;8.25;;;3.97;;
74471;SDS011;62920;53.572;10.050;2022-12-20T13:25:32;7.10;;;3.97;;
74471;SDS011;62920;53.572;10.050;2022-12-20T13:29:16;9.68;;;3.72;;
74471;SDS011;62920;53.572;10.050;2022-12-20T13:39:28;8.45;;;3.65;;
74471;SDS011;62920;53.572;10.050;2022-12-20T13:44:40;8.23;;;4.32;;
74471;SDS011;62920;53.572;10.050;2022-12-20T13:49:47;8.40;;;3.95;;
74471;SDS011;62920;53.572;10.050;2022-12-20T13:55:15;12.93;;;4.93;;
74471;SDS011;62920;53.572;10.050;2022-12-20T13:57:43;7.88;;;4.55;;
74471;SDS011;62920;53.572;10.050;2022-12-20T14:02:42;10.77;;;4.95;;
74471;SDS011;62920;53.572;10.050;2022-12-20T14:05:13;10.30;;;5.15;;
74471;SDS011;62920;53.572;10.050;2022-12-20T14:07:40;9.48;;;4.68;;
74471;SDS011;62920;53.572;10.050;2022-12-20T14:10:15;9.63;;;4.25;;
74471;SDS011;62920;53.572;10.050;2022-12-20T14:12:43;9.48;;;4.65;;
74471;SDS011;62920;53.572;10.050;2022-12-20T14:15:26;25.02;;;4.50;;
74471;SDS011;62920;53.572;10.050;2022-12-20T14:18:05;7.63;;;4.10;;
74471;SDS011;62920;53.572;10.050;2022-12-20T14:20:40;9.40;;;3.90;;
74471;SDS011;62920;53.572;10.050;2022-12-20T14:23:10;8.10;;;4.60;;
74471;SDS011;62920;53.572;10.050;2022-12-20T14:25:42;8.75;;;4.75;;
74471;SDS011;62920;53.572;10.050;2022-12-20T14:28:15;12.05;;;5.18;;
74471;SDS011;62920;53.572;10.050;2022-12-20T14:30:42;9.60;;;4.93;;
74471;SDS011;62920;53.572;10.050;2022-12-20T14:35:52;10.43;;;4.43;;
74471;SDS011;62920;53.572;10.050;2022-12-20T14:38:28;6.78;;;4.03;;
74471;SDS011;62920;53.572;10.050;2022-12-20T14:40:54;9.63;;;4.20;;
74471;SDS011;62920;53.572;10.050;2022-12-20T14:43:27;7.82;;;4.03;;
74471;SDS011;62920;53.572;10.050;2022-12-20T14:46:06;9.32;;;4.40;;
74471;SDS011;62920;53.572;10.050;2022-12-20T14:48:37;10.25;;;4.30;;
74471;SDS011;62920;53.572;10.050;2022-12-20T14:51:03;9.55;;;4.40;;
74471;SDS011;62920;53.572;10.050;2022-12-20T14:53:29;8.00;;;4.18;;
74471;SDS011;62920;53.572;10.050;2022-12-20T14:55:55;12.07;;;4.57;;
74471;SDS011;62920;53.572;10.050;2022-12-20T14:58:27;7.13;;;4.43;;
74471;SDS011;62920;53.572;10.050;2022-12-20T15:03:46;9.70;;;4.60;;
74471;SDS011;62920;53.572;10.050;2022-12-20T15:06:29;8.70;;;4.70;;
74471;SDS011;62920;53.572;10.050;2022-12-20T15:08:55;8.13;;;4.95;;
74471;SDS011;62920;53.572;10.050;2022-12-20T15:11:20;11.30;;;4.85;;
74471;SDS011;62920;53.572;10.050;2022-12-20T15:13:46;9.65;;;3.88;;
74471;SDS011;62920;53.572;10.050;2022-12-20T15:16:22;10.25;;;5.00;;
74471;SDS011;62920;53.572;10.050;2022-12-20T15:19:02;9.40;;;4.85;;
74471;SDS011;62920;53.572;10.050;2022-12-20T15:21:32;13.77;;;6.05;;
74471;SDS011;62920;53.572;10.050;2022-12-20T15:24:00;12.05;;;4.70;;
74471;SDS011;62920;53.572;10.050;2022-12-20T15:26:28;9.75;;;4.47;;
74471;SDS011;62920;53.572;10.050;2022-12-20T15:28:55;9.82;;;4.78;;
74471;SDS011;62920;53.572;10.050;2022-12-20T15:31:21;11.02;;;4.57;;
74471;SDS011;62920;53.572;10.050;2022-12-20T15:33:50;10.25;;;4.70;;
74471;SDS011;62920;53.572;10.050;2022-12-20T15:36:22;11.20;;;4.97;;
74471;SDS011;62920;53.572;10.050;2022-12-20T15:38:50;10.05;;;4.93;;
74471;SDS011;62920;53.572;10.050;2022-12-20T15:41:18;10.68;;;4.70;;
74471;SDS011;62920;53.572;10.050;2022-12-20T15:43:48;9.40;;;5.05;;
74471;SDS011;62920;53.572;10.050;2022-12-20T15:46:15;9.90;;;4.60;;
74471;SDS011;62920;53.572;10.050;2022-12-20T15:48:41;7.75;;;4.50;;
74471;SDS011;62920;53.572;10.050;2022-12-20T15:51:14;7.05;;;4.47;;
74471;SDS011;62920;53.572;10.050;2022-12-20T15:53:42;9.40;;;4.63;;
74471;SDS011;62920;53.572;10.050;2022-12-20T15:56:10;12.02;;;5.00;;
74471;SDS011;62920;53.572;10.050;2022-12-20T15:58:40;10.10;;;4.30;;
74471;SDS011;62920;53.572;10.050;2022-12-20T16:01:07;11.63;;;5.03;;
74471;SDS011;62920;53.572;10.050;2022-12-20T16:03:33;9.18;;;4.55;;
74471;SDS011;62920;53.572;10.050;2022-12-20T16:05:59;12.25;;;4.95;;
74471;SDS011;62920;53.572;10.050;2022-12-20T16:08:24;7.00;;;4.00;;
74471;SDS011;62920;53.572;10.050;2022-12-20T16:10:50;9.48;;;4.57;;
74471;SDS011;62920;53.572;10.050;2022-12-20T16:13:19;7.90;;;4.18;;
74471;SDS011;62920;53.572;10.050;2022-12-20T16:15:47;8.40;;;4.75;;
74471;SDS011;62920;53.572;10.050;2022-12-20T16:18:14;8.52;;;4.03;;
74471;SDS011;62920;53.572;10.050;2022-12-20T16:20:39;8.25;;;4.18;;
74471;SDS011;62920;53.572;10.050;2022-12-20T16:23:05;6.65;;;4.20;;
74471;SDS011;62920;53.572;10.050;2022-12-20T16:28:09;7.00;;;3.88;;
74471;SDS011;62920;53.572;10.050;2022-12-20T16:30:34;8.07;;;4.10;;
74471;SDS011;62920;53.572;10.050;2022-12-20T16:33:01;9.30;;;4.78;;
74471;SDS011;62920;53.572;10.050;2022-12-20T16:35:30;12.43;;;4.72;;
74471;SDS011;62920;53.572;10.050;2022-12-20T16:37:58;9.70;;;4.07;;
74471;SDS011;62920;53.572;10.050;2022-12-20T16:40:24;8.05;;;4.32;;
74471;SDS011;62920;53.572;10.050;2022-12-20T16:42:51;8.30;;;4.65;;
74471;SDS011;62920;53.572;10.050;2022-12-20T16:45:18;10.65;;;4.40;;
74471;SDS011;62920;53.572;10.050;2022-12-20T16:47:46;8.10;;;4.80;;